sensor_id;sensor_type;location;lat;lon;timestamp;temperature;humidity
1259;DHT22;619;51.472;6.628;2023-04-15T00:00:14;14.20;59.70
1259;DHT22;619;51.472;6.628;2023-04-15T00:02:42;14.20;59.70
1259;DHT22;619;51.472;6.628;2023-04-15T00:05:08;14.10;59.80
1259;DHT22;619;51.472;6.628;2023-04-15T00:07:35;14.10;59.80
1259;DHT22;619;51.472;6.628;2023-04-15T00:10:03;14.10;59.90
1259;DHT22;619;51.472;6.628;2023-04-15T00:12:29;14.10;60.10
1259;DHT22;619;51.472;6.628;2023-04-15T00:14:55;14.10;60.20
1259;DHT22;619;51.472;6.628;2023-04-15T00:17:23;14.10;60.40
1259;DHT22;619;51.472;6.628;2023-04-15T00:19:51;14.10;60.70
1259;DHT22;619;51.472;6.628;2023-04-15T00:22:19;14.00;61.00
1259;DHT22;619;51.472;6.628;2023-04-15T00:24:45;14.00;61.10
1259;DHT22;619;51.472;6.628;2023-04-15T00:27:13;13.90;61.00
1259;DHT22;619;51.472;6.628;2023-04-15T00:29:38;13.90;61.20
1259;DHT22;619;51.472;6.628;2023-04-15T00:32:04;13.90;61.10
1259;DHT22;619;51.472;6.628;2023-04-15T00:34:32;13.90;61.30
1259;DHT22;619;51.472;6.628;2023-04-15T00:37:00;13.90;61.50
1259;DHT22;619;51.472;6.628;2023-04-15T00:39:28;13.80;61.50
1259;DHT22;619;51.472;6.628;2023-04-15T00:41:54;13.80;61.50
1259;DHT22;619;51.472;6.628;2023-04-15T00:44:22;13.80;61.50
1259;DHT22;619;51.472;6.628;2023-04-15T00:46:50;13.80;61.70
1259;DHT22;619;51.472;6.628;2023-04-15T00:49:16;13.80;61.70
1259;DHT22;619;51.472;6.628;2023-04-15T00:51:42;13.70;61.70
1259;DHT22;619;51.472;6.628;2023-04-15T00:54:09;13.80;61.80
1259;DHT22;619;51.472;6.628;2023-04-15T00:56:38;13.80;61.80
1259;DHT22;619;51.472;6.628;2023-04-15T00:59:04;13.80;61.90
1259;DHT22;619;51.472;6.628;2023-04-15T01:01:36;13.80;61.90
1259;DHT22;619;51.472;6.628;2023-04-15T01:04:02;13.70;61.80
1259;DHT22;619;51.472;6.628;2023-04-15T01:06:28;13.70;61.80
1259;DHT22;619;51.472;6.628;2023-04-15T01:08:57;13.70;62.00
1259;DHT22;619;51.472;6.628;2023-04-15T01:11:28;13.70;62.00
1259;DHT22;619;51.472;6.628;2023-04-15T01:13:55;13.70;62.00
1259;DHT22;619;51.472;6.628;2023-04-15T01:16:21;13.60;61.90
1259;DHT22;619;51.472;6.628;2023-04-15T01:18:48;13.70;61.90
1259;DHT22;619;51.472;6.628;2023-04-15T01:21:13;13.70;61.90
1259;DHT22;619;51.472;6.628;2023-04-15T01:23:39;13.70;62.00
1259;DHT22;619;51.472;6.628;2023-04-15T01:26:07;13.70;62.20
1259;DHT22;619;51.472;6.628;2023-04-15T01:28:34;13.70;62.40
1259;DHT22;619;51.472;6.628;2023-04-15T01:31:09;13.60;62.70
1259;DHT22;619;51.472;6.628;2023-04-15T01:33:38;13.60;63.00
1259;DHT22;619;51.472;6.628;2023-04-15T01:36:05;13.60;63.10
1259;DHT22;619;51.472;6.628;2023-04-15T01:38:34;13.60;63.30
1259;DHT22;619;51.472;6.628;2023-04-15T01:41:00;13.60;63.60
1259;DHT22;619;51.472;6.628;2023-04-15T01:43:26;13.50;63.90
1259;DHT22;619;51.472;6.628;2023-04-15T01:45:52;13.50;64.20
1259;DHT22;619;51.472;6.628;2023-04-15T01:48:18;13.50;64.50
1259;DHT22;619;51.472;6.628;2023-04-15T01:50:44;13.50;64.40
1259;DHT22;619;51.472;6.628;2023-04-15T01:53:12;13.40;64.40
1259;DHT22;619;51.472;6.628;2023-04-15T01:55:37;13.40;64.50
1259;DHT22;619;51.472;6.628;2023-04-15T01:58:03;13.40;64.80
1259;DHT22;619;51.472;6.628;2023-04-15T02:00:29;13.30;65.00
1259;DHT22;619;51.472;6.628;2023-04-15T02:02:56;13.20;65.10
1259;DHT22;619;51.472;6.628;2023-04-15T02:05:25;13.20;65.30
1259;DHT22;619;51.472;6.628;2023-04-15T02:07:52;13.10;65.50
1259;DHT22;619;51.472;6.628;2023-04-15T02:10:20;13.00;65.70
1259;DHT22;619;51.472;6.628;2023-04-15T02:12:46;13.00;65.90
1259;DHT22;619;51.472;6.628;2023-04-15T02:15:12;12.90;66.20
1259;DHT22;619;51.472;6.628;2023-04-15T02:17:37;12.90;66.50
1259;DHT22;619;51.472;6.628;2023-04-15T02:20:03;12.80;66.60
1259;DHT22;619;51.472;6.628;2023-04-15T02:22:33;12.70;66.70
1259;DHT22;619;51.472;6.628;2023-04-15T02:24:59;12.60;67.00
1259;DHT22;619;51.472;6.628;2023-04-15T02:27:25;12.60;67.20
1259;DHT22;619;51.472;6.628;2023-04-15T02:29:50;12.60;67.50
1259;DHT22;619;51.472;6.628;2023-04-15T02:32:18;12.50;67.60
1259;DHT22;619;51.472;6.628;2023-04-15T02:34:44;12.50;67.70
1259;DHT22;619;51.472;6.628;2023-04-15T02:37:13;12.40;67.70
1259;DHT22;619;51.472;6.628;2023-04-15T02:39:41;12.40;68.00
1259;DHT22;619;51.472;6.628;2023-04-15T02:42:09;12.40;68.20
1259;DHT22;619;51.472;6.628;2023-04-15T02:44:37;12.30;68.40
1259;DHT22;619;51.472;6.628;2023-04-15T02:47:03;12.30;68.60
1259;DHT22;619;51.472;6.628;2023-04-15T02:49:31;12.20;68.50
1259;DHT22;619;51.472;6.628;2023-04-15T02:51:59;12.20;68.70
1259;DHT22;619;51.472;6.628;2023-04-15T02:54:27;12.20;68.90
1259;DHT22;619;51.472;6.628;2023-04-15T02:56:55;12.20;68.90
1259;DHT22;619;51.472;6.628;2023-04-15T02:59:21;12.10;69.00
1259;DHT22;619;51.472;6.628;2023-04-15T03:01:49;12.10;69.00
1259;DHT22;619;51.472;6.628;2023-04-15T03:04:15;12.10;69.00
1259;DHT22;619;51.472;6.628;2023-04-15T03:06:43;12.00;69.00
1259;DHT22;619;51.472;6.628;2023-04-15T03:09:11;12.00;69.10
1259;DHT22;619;51.472;6.628;2023-04-15T03:11:37;11.90;69.20
1259;DHT22;619;51.472;6.628;2023-04-15T03:14:07;11.90;69.50
1259;DHT22;619;51.472;6.628;2023-04-15T03:16:35;11.80;69.40
1259;DHT22;619;51.472;6.628;2023-04-15T03:19:05;11.80;69.50
1259;DHT22;619;51.472;6.628;2023-04-15T03:21:31;11.80;69.80
1259;DHT22;619;51.472;6.628;2023-04-15T03:23:59;11.70;70.00
1259;DHT22;619;51.472;6.628;2023-04-15T03:26:26;11.70;70.20
1259;DHT22;619;51.472;6.628;2023-04-15T03:28:51;11.60;70.30
1259;DHT22;619;51.472;6.628;2023-04-15T03:31:19;11.60;70.40
1259;DHT22;619;51.472;6.628;2023-04-15T03:33:47;11.60;70.70
1259;DHT22;619;51.472;6.628;2023-04-15T03:36:16;11.60;70.80
1259;DHT22;619;51.472;6.628;2023-04-15T03:38:42;11.60;71.00
1259;DHT22;619;51.472;6.628;2023-04-15T03:41:07;11.50;70.80
1259;DHT22;619;51.472;6.628;2023-04-15T03:43:34;11.60;71.10
1259;DHT22;619;51.472;6.628;2023-04-15T03:45:59;11.50;71.00
1259;DHT22;619;51.472;6.628;2023-04-15T03:48:28;11.50;70.90
1259;DHT22;619;51.472;6.628;2023-04-15T03:50:53;11.50;71.00
1259;DHT22;619;51.472;6.628;2023-04-15T03:53:20;11.50;71.00
1259;DHT22;619;51.472;6.628;2023-04-15T03:55:48;11.50;71.10
1259;DHT22;619;51.472;6.628;2023-04-15T03:58:14;11.50;71.10
1259;DHT22;619;51.472;6.628;2023-04-15T04:00:39;11.50;71.20
1259;DHT22;619;51.472;6.628;2023-04-15T04:03:05;11.50;71.10
1259;DHT22;619;51.472;6.628;2023-04-15T04:05:31;11.50;71.00
1259;DHT22;619;51.472;6.628;2023-04-15T04:07:59;11.50;71.00
1259;DHT22;619;51.472;6.628;2023-04-15T04:10:25;11.40;70.80
1259;DHT22;619;51.472;6.628;2023-04-15T04:12:51;11.40;70.90
1259;DHT22;619;51.472;6.628;2023-04-15T04:15:19;11.40;71.30
1259;DHT22;619;51.472;6.628;2023-04-15T04:17:47;11.40;71.70
1259;DHT22;619;51.472;6.628;2023-04-15T04:20:14;11.30;71.70
1259;DHT22;619;51.472;6.628;2023-04-15T04:22:40;11.30;71.80
1259;DHT22;619;51.472;6.628;2023-04-15T04:25:06;11.30;72.10
1259;DHT22;619;51.472;6.628;2023-04-15T04:27:35;11.30;72.10
1259;DHT22;619;51.472;6.628;2023-04-15T04:30:04;11.30;72.50
1259;DHT22;619;51.472;6.628;2023-04-15T04:32:31;11.30;72.90
1259;DHT22;619;51.472;6.628;2023-04-15T04:34:56;11.30;73.30
1259;DHT22;619;51.472;6.628;2023-04-15T04:37:22;11.30;73.50
1259;DHT22;619;51.472;6.628;2023-04-15T04:39:51;11.30;73.60
1259;DHT22;619;51.472;6.628;2023-04-15T04:42:16;11.30;73.90
1259;DHT22;619;51.472;6.628;2023-04-15T04:44:42;11.40;74.00
1259;DHT22;619;51.472;6.628;2023-04-15T04:47:07;11.50;73.90
1259;DHT22;619;51.472;6.628;2023-04-15T04:49:33;11.50;73.70
1259;DHT22;619;51.472;6.628;2023-04-15T04:51:59;11.50;73.30
1259;DHT22;619;51.472;6.628;2023-04-15T04:54:24;11.60;73.20
1259;DHT22;619;51.472;6.628;2023-04-15T04:56:52;11.60;73.00
1259;DHT22;619;51.472;6.628;2023-04-15T04:59:19;11.70;72.90
1259;DHT22;619;51.472;6.628;2023-04-15T05:01:48;11.70;72.90
1259;DHT22;619;51.472;6.628;2023-04-15T05:04:16;11.70;72.90
1259;DHT22;619;51.472;6.628;2023-04-15T05:06:46;11.70;72.80
1259;DHT22;619;51.472;6.628;2023-04-15T05:09:14;11.80;73.00
1259;DHT22;619;51.472;6.628;2023-04-15T05:11:40;11.80;72.70
1259;DHT22;619;51.472;6.628;2023-04-15T05:14:07;11.80;72.50
1259;DHT22;619;51.472;6.628;2023-04-15T05:16:33;11.80;72.30
1259;DHT22;619;51.472;6.628;2023-04-15T05:18:59;11.90;72.40
1259;DHT22;619;51.472;6.628;2023-04-15T05:21:26;11.90;72.40
1259;DHT22;619;51.472;6.628;2023-04-15T05:23:55;11.90;72.20
1259;DHT22;619;51.472;6.628;2023-04-15T05:26:20;11.90;72.20
1259;DHT22;619;51.472;6.628;2023-04-15T05:28:48;11.90;72.10
1259;DHT22;619;51.472;6.628;2023-04-15T05:31:15;11.90;72.20
1259;DHT22;619;51.472;6.628;2023-04-15T05:33:40;12.00;72.30
1259;DHT22;619;51.472;6.628;2023-04-15T05:36:09;12.00;72.50
1259;DHT22;619;51.472;6.628;2023-04-15T05:38:36;12.00;72.60
1259;DHT22;619;51.472;6.628;2023-04-15T05:41:02;12.00;72.50
1259;DHT22;619;51.472;6.628;2023-04-15T05:43:33;12.10;72.70
1259;DHT22;619;51.472;6.628;2023-04-15T05:45:59;12.10;72.50
1259;DHT22;619;51.472;6.628;2023-04-15T05:48:24;12.10;72.50
1259;DHT22;619;51.472;6.628;2023-04-15T05:50:50;12.20;72.60
1259;DHT22;619;51.472;6.628;2023-04-15T05:53:15;12.20;72.80
1259;DHT22;619;51.472;6.628;2023-04-15T05:55:41;12.20;73.50
1259;DHT22;619;51.472;6.628;2023-04-15T05:58:07;12.30;72.90
1259;DHT22;619;51.472;6.628;2023-04-15T06:00:32;12.30;72.90
1259;DHT22;619;51.472;6.628;2023-04-15T06:02:58;12.40;72.90
1259;DHT22;619;51.472;6.628;2023-04-15T06:05:24;12.40;72.80
1259;DHT22;619;51.472;6.628;2023-04-15T06:07:49;12.50;72.90
1259;DHT22;619;51.472;6.628;2023-04-15T06:10:17;12.50;72.70
1259;DHT22;619;51.472;6.628;2023-04-15T06:12:48;12.60;72.70
1259;DHT22;619;51.472;6.628;2023-04-15T06:15:16;12.60;72.70
1259;DHT22;619;51.472;6.628;2023-04-15T06:17:42;12.60;72.80
1259;DHT22;619;51.472;6.628;2023-04-15T06:20:10;12.70;72.90
1259;DHT22;619;51.472;6.628;2023-04-15T06:22:39;12.80;72.90
1259;DHT22;619;51.472;6.628;2023-04-15T06:25:07;12.90;72.80
1259;DHT22;619;51.472;6.628;2023-04-15T06:27:33;12.90;72.50
1259;DHT22;619;51.472;6.628;2023-04-15T06:29:59;13.00;72.70
1259;DHT22;619;51.472;6.628;2023-04-15T06:32:27;13.10;72.60
1259;DHT22;619;51.472;6.628;2023-04-15T06:34:55;13.20;72.60
1259;DHT22;619;51.472;6.628;2023-04-15T06:37:21;13.20;72.60
1259;DHT22;619;51.472;6.628;2023-04-15T06:39:46;13.40;72.60
1259;DHT22;619;51.472;6.628;2023-04-15T06:42:14;13.50;72.50
1259;DHT22;619;51.472;6.628;2023-04-15T06:44:40;13.60;72.40
1259;DHT22;619;51.472;6.628;2023-04-15T06:47:06;13.70;71.90
1259;DHT22;619;51.472;6.628;2023-04-15T06:49:34;13.80;72.00
1259;DHT22;619;51.472;6.628;2023-04-15T06:52:02;13.90;72.30
1259;DHT22;619;51.472;6.628;2023-04-15T06:54:29;14.10;72.00
1259;DHT22;619;51.472;6.628;2023-04-15T06:56:54;14.20;71.80
1259;DHT22;619;51.472;6.628;2023-04-15T06:59:25;14.30;71.30
1259;DHT22;619;51.472;6.628;2023-04-15T07:01:51;14.50;71.20
1259;DHT22;619;51.472;6.628;2023-04-15T07:04:19;14.60;70.70
1259;DHT22;619;51.472;6.628;2023-04-15T07:06:49;14.70;70.70
1259;DHT22;619;51.472;6.628;2023-04-15T07:09:18;14.90;70.80
1259;DHT22;619;51.472;6.628;2023-04-15T07:11:44;14.90;69.50
1259;DHT22;619;51.472;6.628;2023-04-15T07:14:14;15.00;69.50
1259;DHT22;619;51.472;6.628;2023-04-15T07:16:42;15.10;69.30
1259;DHT22;619;51.472;6.628;2023-04-15T07:19:10;15.20;68.90
1259;DHT22;619;51.472;6.628;2023-04-15T07:21:38;15.30;69.10
1259;DHT22;619;51.472;6.628;2023-04-15T07:24:06;15.30;68.10
1259;DHT22;619;51.472;6.628;2023-04-15T07:26:32;15.50;68.30
1259;DHT22;619;51.472;6.628;2023-04-15T07:28:57;15.60;67.50
1259;DHT22;619;51.472;6.628;2023-04-15T07:31:25;15.70;67.40
1259;DHT22;619;51.472;6.628;2023-04-15T07:33:53;15.80;66.60
1259;DHT22;619;51.472;6.628;2023-04-15T07:36:21;15.90;65.60
1259;DHT22;619;51.472;6.628;2023-04-15T07:38:49;16.00;65.20
1259;DHT22;619;51.472;6.628;2023-04-15T07:41:15;16.20;64.70
1259;DHT22;619;51.472;6.628;2023-04-15T07:43:43;16.30;64.70
1259;DHT22;619;51.472;6.628;2023-04-15T07:46:11;16.40;65.30
1259;DHT22;619;51.472;6.628;2023-04-15T07:48:39;16.60;65.00
1259;DHT22;619;51.472;6.628;2023-04-15T07:51:05;16.80;63.70
1259;DHT22;619;51.472;6.628;2023-04-15T07:53:33;16.80;62.10
1259;DHT22;619;51.472;6.628;2023-04-15T07:55:58;16.90;60.70
1259;DHT22;619;51.472;6.628;2023-04-15T07:58:24;16.80;59.60
1259;DHT22;619;51.472;6.628;2023-04-15T08:00:50;16.90;59.40
1259;DHT22;619;51.472;6.628;2023-04-15T08:03:16;16.90;58.70
1259;DHT22;619;51.472;6.628;2023-04-15T08:05:41;16.80;58.50
1259;DHT22;619;51.472;6.628;2023-04-15T08:08:09;16.90;58.90
1259;DHT22;619;51.472;6.628;2023-04-15T08:10:39;16.90;58.90
1259;DHT22;619;51.472;6.628;2023-04-15T08:13:04;16.80;59.30
1259;DHT22;619;51.472;6.628;2023-04-15T08:15:32;16.80;59.00
1259;DHT22;619;51.472;6.628;2023-04-15T08:18:00;16.80;58.70
1259;DHT22;619;51.472;6.628;2023-04-15T08:20:31;16.90;59.00
1259;DHT22;619;51.472;6.628;2023-04-15T08:23:02;16.90;58.80
1259;DHT22;619;51.472;6.628;2023-04-15T08:25:28;17.10;59.20
1259;DHT22;619;51.472;6.628;2023-04-15T08:28:03;17.20;59.30
1259;DHT22;619;51.472;6.628;2023-04-15T08:30:31;17.40;59.10
1259;DHT22;619;51.472;6.628;2023-04-15T08:32:59;17.50;58.80
1259;DHT22;619;51.472;6.628;2023-04-15T08:35:30;17.60;58.50
1259;DHT22;619;51.472;6.628;2023-04-15T08:37:58;17.60;57.60
1259;DHT22;619;51.472;6.628;2023-04-15T08:40:33;17.50;57.50
1259;DHT22;619;51.472;6.628;2023-04-15T08:43:05;17.50;57.30
1259;DHT22;619;51.472;6.628;2023-04-15T08:45:38;17.60;57.70
1259;DHT22;619;51.472;6.628;2023-04-15T08:48:04;17.50;57.40
1259;DHT22;619;51.472;6.628;2023-04-15T08:50:34;17.70;58.30
1259;DHT22;619;51.472;6.628;2023-04-15T08:53:05;17.60;58.50
1259;DHT22;619;51.472;6.628;2023-04-15T08:55:35;17.60;58.20
1259;DHT22;619;51.472;6.628;2023-04-15T08:58:03;17.50;57.60
1259;DHT22;619;51.472;6.628;2023-04-15T09:00:30;17.50;58.10
1259;DHT22;619;51.472;6.628;2023-04-15T09:03:01;17.40;58.20
1259;DHT22;619;51.472;6.628;2023-04-15T09:05:31;17.60;59.20
1259;DHT22;619;51.472;6.628;2023-04-15T09:07:59;17.70;58.70
1259;DHT22;619;51.472;6.628;2023-04-15T09:10:24;17.90;58.90
1259;DHT22;619;51.472;6.628;2023-04-15T09:12:52;18.10;57.90
1259;DHT22;619;51.472;6.628;2023-04-15T09:15:20;18.10;57.00
1259;DHT22;619;51.472;6.628;2023-04-15T09:17:48;18.00;56.80
1259;DHT22;619;51.472;6.628;2023-04-15T09:20:15;17.90;56.70
1259;DHT22;619;51.472;6.628;2023-04-15T09:22:46;18.00;57.30
1259;DHT22;619;51.472;6.628;2023-04-15T09:27:50;17.90;57.80
1259;DHT22;619;51.472;6.628;2023-04-15T09:30:16;17.90;57.80
1259;DHT22;619;51.472;6.628;2023-04-15T09:35:19;17.80;58.10
1259;DHT22;619;51.472;6.628;2023-04-15T09:37:45;17.90;58.50
1259;DHT22;619;51.472;6.628;2023-04-15T09:40:15;18.00;59.20
1259;DHT22;619;51.472;6.628;2023-04-15T09:42:59;18.10;59.70
1259;DHT22;619;51.472;6.628;2023-04-15T09:45:28;18.20;58.40
1259;DHT22;619;51.472;6.628;2023-04-15T09:47:57;18.40;58.40
1259;DHT22;619;51.472;6.628;2023-04-15T09:50:26;18.40;58.50
1259;DHT22;619;51.472;6.628;2023-04-15T09:52:55;18.40;57.90
1259;DHT22;619;51.472;6.628;2023-04-15T09:55:21;18.50;57.80
1259;DHT22;619;51.472;6.628;2023-04-15T09:57:49;18.60;58.10
1259;DHT22;619;51.472;6.628;2023-04-15T10:00:19;18.70;58.70
1259;DHT22;619;51.472;6.628;2023-04-15T10:02:50;18.70;58.00
1259;DHT22;619;51.472;6.628;2023-04-15T10:05:18;18.60;57.50
1259;DHT22;619;51.472;6.628;2023-04-15T10:07:47;18.60;58.00
1259;DHT22;619;51.472;6.628;2023-04-15T10:10:13;18.60;57.60
1259;DHT22;619;51.472;6.628;2023-04-15T10:12:40;18.60;58.50
1259;DHT22;619;51.472;6.628;2023-04-15T10:15:14;18.60;57.60
1259;DHT22;619;51.472;6.628;2023-04-15T10:17:44;18.50;57.90
1259;DHT22;619;51.472;6.628;2023-04-15T10:20:12;18.50;57.80
1259;DHT22;619;51.472;6.628;2023-04-15T10:22:39;18.60;58.20
1259;DHT22;619;51.472;6.628;2023-04-15T10:25:06;18.80;58.50
1259;DHT22;619;51.472;6.628;2023-04-15T10:27:38;19.00;58.60
1259;DHT22;619;51.472;6.628;2023-04-15T10:30:04;19.10;57.50
1259;DHT22;619;51.472;6.628;2023-04-15T10:32:33;19.30;57.10
1259;DHT22;619;51.472;6.628;2023-04-15T10:35:02;19.40;57.10
1259;DHT22;619;51.472;6.628;2023-04-15T10:37:36;19.40;57.00
1259;DHT22;619;51.472;6.628;2023-04-15T10:40:30;19.40;57.60
1259;DHT22;619;51.472;6.628;2023-04-15T10:43:01;19.50;57.50
1259;DHT22;619;51.472;6.628;2023-04-15T10:45:31;19.40;57.20
1259;DHT22;619;51.472;6.628;2023-04-15T10:47:57;19.40;57.60
1259;DHT22;619;51.472;6.628;2023-04-15T10:50:26;19.40;57.50
1259;DHT22;619;51.472;6.628;2023-04-15T10:52:53;19.40;58.40
1259;DHT22;619;51.472;6.628;2023-04-15T10:55:26;19.40;57.80
1259;DHT22;619;51.472;6.628;2023-04-15T10:58:00;19.50;57.60
1259;DHT22;619;51.472;6.628;2023-04-15T11:00:31;19.60;56.60
1259;DHT22;619;51.472;6.628;2023-04-15T11:03:07;19.60;57.00
1259;DHT22;619;51.472;6.628;2023-04-15T11:08:13;19.80;57.10
1259;DHT22;619;51.472;6.628;2023-04-15T11:15:39;19.70;57.00
1259;DHT22;619;51.472;6.628;2023-04-15T11:20:35;19.60;56.40
1259;DHT22;619;51.472;6.628;2023-04-15T11:23:03;19.50;55.80
1259;DHT22;619;51.472;6.628;2023-04-15T11:25:31;19.40;57.00
1259;DHT22;619;51.472;6.628;2023-04-15T11:27:58;19.30;56.60
1259;DHT22;619;51.472;6.628;2023-04-15T11:30:31;19.10;57.10
1259;DHT22;619;51.472;6.628;2023-04-15T11:33:05;18.90;57.60
1259;DHT22;619;51.472;6.628;2023-04-15T11:35:34;18.70;58.20
1259;DHT22;619;51.472;6.628;2023-04-15T11:38:08;18.70;58.50
1259;DHT22;619;51.472;6.628;2023-04-15T11:40:35;18.60;58.40
1259;DHT22;619;51.472;6.628;2023-04-15T11:43:10;18.40;58.50
1259;DHT22;619;51.472;6.628;2023-04-15T11:45:49;18.30;58.80
1259;DHT22;619;51.472;6.628;2023-04-15T11:48:21;18.10;59.30
1259;DHT22;619;51.472;6.628;2023-04-15T11:51:03;17.90;59.30
1259;DHT22;619;51.472;6.628;2023-04-15T11:56:19;17.90;59.90
1259;DHT22;619;51.472;6.628;2023-04-15T11:58:50;17.90;60.10
1259;DHT22;619;51.472;6.628;2023-04-15T12:01:21;17.80;59.70
1259;DHT22;619;51.472;6.628;2023-04-15T12:03:57;17.80;60.90
1259;DHT22;619;51.472;6.628;2023-04-15T12:06:24;17.90;61.00
1259;DHT22;619;51.472;6.628;2023-04-15T12:09:10;17.90;60.10
1259;DHT22;619;51.472;6.628;2023-04-15T12:11:46;18.00;59.90
1259;DHT22;619;51.472;6.628;2023-04-15T12:14:27;18.10;60.60
1259;DHT22;619;51.472;6.628;2023-04-15T12:17:04;18.10;59.70
1259;DHT22;619;51.472;6.628;2023-04-15T12:19:34;18.20;59.80
1259;DHT22;619;51.472;6.628;2023-04-15T12:22:02;18.30;60.40
1259;DHT22;619;51.472;6.628;2023-04-15T12:24:31;18.30;59.80
1259;DHT22;619;51.472;6.628;2023-04-15T12:27:02;18.40;59.70
1259;DHT22;619;51.472;6.628;2023-04-15T12:29:31;18.40;59.60
1259;DHT22;619;51.472;6.628;2023-04-15T12:32:18;18.40;59.60
1259;DHT22;619;51.472;6.628;2023-04-15T12:34:51;18.50;59.70
1259;DHT22;619;51.472;6.628;2023-04-15T12:37:17;18.40;59.40
1259;DHT22;619;51.472;6.628;2023-04-15T12:39:45;18.30;59.40
1259;DHT22;619;51.472;6.628;2023-04-15T12:42:13;18.10;59.80
1259;DHT22;619;51.472;6.628;2023-04-15T12:44:40;17.80;60.20
1259;DHT22;619;51.472;6.628;2023-04-15T12:47:08;17.70;61.30
1259;DHT22;619;51.472;6.628;2023-04-15T12:49:35;17.60;61.50
1259;DHT22;619;51.472;6.628;2023-04-15T12:52:03;17.50;62.10
1259;DHT22;619;51.472;6.628;2023-04-15T12:54:32;17.40;61.30
1259;DHT22;619;51.472;6.628;2023-04-15T12:56:59;17.50;62.40
1259;DHT22;619;51.472;6.628;2023-04-15T12:59:29;17.50;62.50
1259;DHT22;619;51.472;6.628;2023-04-15T13:01:55;17.50;61.90
1259;DHT22;619;51.472;6.628;2023-04-15T13:04:23;17.50;61.50
1259;DHT22;619;51.472;6.628;2023-04-15T13:06:52;17.50;61.60
1259;DHT22;619;51.472;6.628;2023-04-15T13:09:20;17.60;62.30
1259;DHT22;619;51.472;6.628;2023-04-15T13:11:48;17.60;61.20
1259;DHT22;619;51.472;6.628;2023-04-15T13:14:14;17.80;61.30
1259;DHT22;619;51.472;6.628;2023-04-15T13:16:42;17.70;60.50
1259;DHT22;619;51.472;6.628;2023-04-15T13:19:10;17.70;60.80
1259;DHT22;619;51.472;6.628;2023-04-15T13:21:35;17.70;60.90
1259;DHT22;619;51.472;6.628;2023-04-15T13:24:01;17.80;61.20
1259;DHT22;619;51.472;6.628;2023-04-15T13:26:27;17.90;61.30
1259;DHT22;619;51.472;6.628;2023-04-15T13:28:55;18.00;61.70
1259;DHT22;619;51.472;6.628;2023-04-15T13:31:21;18.10;61.30
1259;DHT22;619;51.472;6.628;2023-04-15T13:33:49;18.30;61.50
1259;DHT22;619;51.472;6.628;2023-04-15T13:36:19;18.50;60.00
1259;DHT22;619;51.472;6.628;2023-04-15T13:38:47;18.60;59.10
1259;DHT22;619;51.472;6.628;2023-04-15T13:41:13;18.60;59.10
1259;DHT22;619;51.472;6.628;2023-04-15T13:43:40;18.60;59.20
1259;DHT22;619;51.472;6.628;2023-04-15T13:46:06;18.60;59.40
1259;DHT22;619;51.472;6.628;2023-04-15T13:48:34;18.50;59.30
1259;DHT22;619;51.472;6.628;2023-04-15T13:51:02;18.40;59.20
1259;DHT22;619;51.472;6.628;2023-04-15T13:53:30;18.30;59.40
1259;DHT22;619;51.472;6.628;2023-04-15T13:56:01;18.00;59.90
1259;DHT22;619;51.472;6.628;2023-04-15T13:58:26;17.80;60.00
1259;DHT22;619;51.472;6.628;2023-04-15T14:00:52;17.60;60.70
1259;DHT22;619;51.472;6.628;2023-04-15T14:03:17;17.40;61.60
1259;DHT22;619;51.472;6.628;2023-04-15T14:05:45;17.30;61.60
1259;DHT22;619;51.472;6.628;2023-04-15T14:08:13;17.20;61.90
1259;DHT22;619;51.472;6.628;2023-04-15T14:10:41;17.10;61.80
1259;DHT22;619;51.472;6.628;2023-04-15T14:13:11;17.00;61.70
1259;DHT22;619;51.472;6.628;2023-04-15T14:15:36;17.10;62.20
1259;DHT22;619;51.472;6.628;2023-04-15T14:18:02;17.10;62.10
1259;DHT22;619;51.472;6.628;2023-04-15T14:20:27;17.20;62.30
1259;DHT22;619;51.472;6.628;2023-04-15T14:22:55;17.10;62.40
1259;DHT22;619;51.472;6.628;2023-04-15T14:25:23;17.00;62.90
1259;DHT22;619;51.472;6.628;2023-04-15T14:27:51;17.00;63.00
1259;DHT22;619;51.472;6.628;2023-04-15T14:30:17;17.00;63.10
1259;DHT22;619;51.472;6.628;2023-04-15T14:32:45;16.90;63.50
1259;DHT22;619;51.472;6.628;2023-04-15T14:35:13;16.90;63.70
1259;DHT22;619;51.472;6.628;2023-04-15T14:37:41;16.80;64.00
1259;DHT22;619;51.472;6.628;2023-04-15T14:40:10;16.80;64.40
1259;DHT22;619;51.472;6.628;2023-04-15T14:42:36;16.70;64.60
1259;DHT22;619;51.472;6.628;2023-04-15T14:45:06;16.70;64.60
1259;DHT22;619;51.472;6.628;2023-04-15T14:47:37;16.70;64.70
1259;DHT22;619;51.472;6.628;2023-04-15T14:50:08;16.70;64.40
1259;DHT22;619;51.472;6.628;2023-04-15T14:52:34;16.80;64.20
1259;DHT22;619;51.472;6.628;2023-04-15T14:55:08;16.80;63.80
1259;DHT22;619;51.472;6.628;2023-04-15T14:57:43;16.90;64.10
1259;DHT22;619;51.472;6.628;2023-04-15T15:00:10;16.90;63.90
1259;DHT22;619;51.472;6.628;2023-04-15T15:02:38;17.00;64.00
1259;DHT22;619;51.472;6.628;2023-04-15T15:05:07;17.00;63.80
1259;DHT22;619;51.472;6.628;2023-04-15T15:07:37;17.00;63.20
1259;DHT22;619;51.472;6.628;2023-04-15T15:10:07;16.90;63.10
1259;DHT22;619;51.472;6.628;2023-04-15T15:12:33;17.00;63.20
1259;DHT22;619;51.472;6.628;2023-04-15T15:15:02;17.00;63.40
1259;DHT22;619;51.472;6.628;2023-04-15T15:17:28;17.10;63.30
1259;DHT22;619;51.472;6.628;2023-04-15T15:19:56;17.10;63.20
1259;DHT22;619;51.472;6.628;2023-04-15T15:22:22;17.00;63.20
1259;DHT22;619;51.472;6.628;2023-04-15T15:24:48;17.00;63.70
1259;DHT22;619;51.472;6.628;2023-04-15T15:27:13;17.00;63.60
1259;DHT22;619;51.472;6.628;2023-04-15T15:29:39;17.00;63.70
1259;DHT22;619;51.472;6.628;2023-04-15T15:32:05;16.70;63.40
1259;DHT22;619;51.472;6.628;2023-04-15T15:34:30;16.60;63.70
1259;DHT22;619;51.472;6.628;2023-04-15T15:36:56;16.50;63.70
1259;DHT22;619;51.472;6.628;2023-04-15T15:39:22;16.50;64.50
1259;DHT22;619;51.472;6.628;2023-04-15T15:41:49;16.50;65.10
1259;DHT22;619;51.472;6.628;2023-04-15T15:44:14;16.60;65.40
1259;DHT22;619;51.472;6.628;2023-04-15T15:46:40;16.60;65.60
1259;DHT22;619;51.472;6.628;2023-04-15T15:49:08;16.50;65.40
1259;DHT22;619;51.472;6.628;2023-04-15T15:51:38;16.40;66.10
1259;DHT22;619;51.472;6.628;2023-04-15T15:54:07;16.50;66.50
1259;DHT22;619;51.472;6.628;2023-04-15T15:56:34;16.50;66.90
1259;DHT22;619;51.472;6.628;2023-04-15T15:59:03;16.50;66.90
1259;DHT22;619;51.472;6.628;2023-04-15T16:01:31;16.40;66.50
1259;DHT22;619;51.472;6.628;2023-04-15T16:03:57;16.40;66.60
1259;DHT22;619;51.472;6.628;2023-04-15T16:06:25;16.40;66.90
1259;DHT22;619;51.472;6.628;2023-04-15T16:08:51;16.40;67.10
1259;DHT22;619;51.472;6.628;2023-04-15T16:11:17;16.40;67.60
1259;DHT22;619;51.472;6.628;2023-04-15T16:13:45;16.40;67.80
1259;DHT22;619;51.472;6.628;2023-04-15T16:16:13;16.20;66.90
1259;DHT22;619;51.472;6.628;2023-04-15T16:18:41;16.00;66.90
1259;DHT22;619;51.472;6.628;2023-04-15T16:21:09;15.90;67.00
1259;DHT22;619;51.472;6.628;2023-04-15T16:23:35;15.80;67.40
1259;DHT22;619;51.472;6.628;2023-04-15T16:26:04;15.70;67.80
1259;DHT22;619;51.472;6.628;2023-04-15T16:28:32;15.70;68.00
1259;DHT22;619;51.472;6.628;2023-04-15T16:30:57;15.60;68.30
1259;DHT22;619;51.472;6.628;2023-04-15T16:33:28;15.70;68.90
1259;DHT22;619;51.472;6.628;2023-04-15T16:35:56;15.70;69.00
1259;DHT22;619;51.472;6.628;2023-04-15T16:38:21;15.70;69.20